createdAt,value
2023-01-19T00:02:01.319Z,0.00
2023-01-19T00:12:08.545Z,0.00
2023-01-19T00:22:15.721Z,0.00
2023-01-19T00:32:22.519Z,0.00
2023-01-19T00:42:29.718Z,0.00
2023-01-19T00:52:36.618Z,0.00
2023-01-19T01:02:44.011Z,0.00
2023-01-19T01:12:55.169Z,0.00
2023-01-19T01:23:04.025Z,0.00
2023-01-19T01:33:11.500Z,0.00
2023-01-19T01:43:18.842Z,0.00
2023-01-19T01:53:26.202Z,0.00
2023-01-19T02:03:33.933Z,0.00
2023-01-19T02:13:40.625Z,0.00
2023-01-19T02:23:47.993Z,0.00
2023-01-19T02:33:54.894Z,0.00
2023-01-19T02:44:02.124Z,0.00
2023-01-19T02:54:08.975Z,0.00
2023-01-19T03:04:15.936Z,0.00
2023-01-19T03:14:23.483Z,0.00
2023-01-19T03:24:30.513Z,0.00
2023-01-19T03:34:37.361Z,0.00
2023-01-19T03:44:44.239Z,0.00
2023-01-19T03:54:51.859Z,0.00
2023-01-19T04:04:58.557Z,0.00
2023-01-19T04:15:05.599Z,0.00
2023-01-19T04:25:12.606Z,0.00
2023-01-19T04:35:19.541Z,0.00
2023-01-19T04:45:25.854Z,0.00
2023-01-19T04:55:32.463Z,0.00
2023-01-19T05:05:39.852Z,0.00
2023-01-19T05:15:46.944Z,40.00
2023-01-19T05:25:53.970Z,40.00
2023-01-19T05:36:01.660Z,36.00
2023-01-19T05:46:08.014Z,40.00
2023-01-19T05:56:14.663Z,40.00
2023-01-19T06:06:20.967Z,40.00
2023-01-19T06:16:28.556Z,40.00
2023-01-19T06:26:35.739Z,40.00
2023-01-19T06:36:42.354Z,40.00
2023-01-19T06:46:49.768Z,44.00
2023-01-19T06:56:56.876Z,44.00
2023-01-19T07:07:04.778Z,48.00
2023-01-19T07:17:11.265Z,56.00
2023-01-19T07:27:18.125Z,72.00
2023-01-19T07:37:25.615Z,88.00
2023-01-19T07:47:32.293Z,108.00
2023-01-19T07:57:39.372Z,124.00
2023-01-19T08:07:46.643Z,140.00
2023-01-19T08:17:53.741Z,152.00
2023-01-19T08:28:00.452Z,164.00
2023-01-19T08:38:07.986Z,568.00
2023-01-19T08:48:13.943Z,1912.00
2023-01-19T08:58:20.645Z,1972.00
2023-01-19T09:08:27.575Z,252.00
2023-01-19T09:18:34.648Z,1628.00
2023-01-19T09:28:41.786Z,5680.00
2023-01-19T09:38:50.198Z,4784.00
2023-01-19T09:48:57.219Z,3892.00
2023-01-19T09:59:04.889Z,1600.00
2023-01-19T10:09:12.101Z,224.00
2023-01-19T10:19:18.975Z,232.00
2023-01-19T10:29:26.232Z,248.00
2023-01-19T10:39:37.907Z,216.00
2023-01-19T10:49:45.559Z,212.00
2023-01-19T10:59:52.177Z,180.00
2023-01-19T11:09:59.187Z,188.00
2023-01-19T11:20:06.234Z,248.00
2023-01-19T11:30:13.113Z,208.00
2023-01-19T11:40:20.276Z,180.00
2023-01-19T11:50:27.281Z,168.00
2023-01-19T12:00:33.566Z,160.00
2023-01-19T12:10:40.452Z,160.00
2023-01-19T12:20:47.255Z,156.00
2023-01-19T12:30:54.848Z,144.00
2023-01-19T12:41:01.371Z,148.00
2023-01-19T12:51:08.775Z,144.00
2023-01-19T13:01:15.488Z,140.00
2023-01-19T13:11:24.315Z,136.00
2023-01-19T13:21:33.768Z,132.00
2023-01-19T13:31:41.083Z,128.00
2023-01-19T13:41:47.991Z,124.00
2023-01-19T13:51:54.877Z,252.00
2023-01-19T14:02:02.360Z,108.00
2023-01-19T14:12:10.064Z,96.00
2023-01-19T14:22:16.977Z,88.00
2023-01-19T14:32:24.239Z,80.00
2023-01-19T14:42:31.112Z,64.00
2023-01-19T14:52:37.751Z,56.00
2023-01-19T15:02:43.869Z,52.00
2023-01-19T15:12:51.497Z,48.00
2023-01-19T15:22:58.081Z,44.00
2023-01-19T15:33:06.581Z,40.00
2023-01-19T15:43:13.443Z,40.00
2023-01-19T15:53:20.937Z,40.00
2023-01-19T16:03:28.838Z,40.00
2023-01-19T16:13:36.202Z,40.00
2023-01-19T16:23:42.612Z,40.00
2023-01-19T16:33:49.907Z,40.00
2023-01-19T16:43:56.735Z,40.00
2023-01-19T16:54:03.346Z,40.00
2023-01-19T17:04:10.605Z,40.00
2023-01-19T17:14:17.995Z,40.00
2023-01-19T17:24:24.702Z,40.00
2023-01-19T17:34:31.912Z,0.00
2023-01-19T17:44:38.981Z,0.00
2023-01-19T17:54:45.854Z,0.00
2023-01-19T18:04:53.176Z,0.00
2023-01-19T18:15:00.243Z,0.00
2023-01-19T18:25:07.299Z,0.00
2023-01-19T18:35:14.441Z,0.00
2023-01-19T18:45:21.228Z,0.00
2023-01-19T18:55:28.297Z,0.00
2023-01-19T19:05:35.027Z,0.00
2023-01-19T19:15:42.212Z,0.00
2023-01-19T19:25:49.391Z,0.00
2023-01-19T19:35:56.215Z,0.00
2023-01-19T19:46:03.804Z,0.00
2023-01-19T19:56:11.175Z,0.00
2023-01-19T20:06:18.612Z,0.00
2023-01-19T20:16:25.823Z,0.00
2023-01-19T20:26:32.526Z,0.00
2023-01-19T20:36:39.881Z,0.00
2023-01-19T20:46:46.719Z,0.00
2023-01-19T20:56:53.577Z,0.00
2023-01-19T21:07:00.651Z,0.00
2023-01-19T21:17:08.027Z,0.00
2023-01-19T21:27:15.131Z,0.00
2023-01-19T21:37:21.922Z,0.00
2023-01-19T21:47:27.861Z,0.00
2023-01-19T21:57:35.259Z,0.00
2023-01-19T22:07:41.863Z,0.00
2023-01-19T22:17:49.139Z,0.00
2023-01-19T22:27:55.904Z,0.00
2023-01-19T22:38:02.504Z,0.00
2023-01-19T22:48:09.310Z,0.00
2023-01-19T22:58:16.706Z,0.00
2023-01-19T23:08:23.549Z,0.00
2023-01-19T23:18:30.626Z,0.00
2023-01-19T23:28:37.494Z,0.00
2023-01-19T23:38:44.631Z,0.00
2023-01-19T23:48:51.434Z,0.00
2023-01-19T23:58:58.288Z,0.00
